createdAt,value
2023-04-16T00:01:50.207Z,100.00
2023-04-16T00:04:18.517Z,100.00
2023-04-16T00:06:46.687Z,100.00
2023-04-16T00:09:15.145Z,100.00
2023-04-16T00:11:43.068Z,100.00
2023-04-16T00:14:11.136Z,100.00
2023-04-16T00:16:39.476Z,100.00
2023-04-16T00:19:07.816Z,100.00
2023-04-16T00:21:36.316Z,100.00
2023-04-16T00:24:04.337Z,100.00
2023-04-16T00:26:32.405Z,100.00
2023-04-16T00:29:01.148Z,100.00
2023-04-16T00:31:31.353Z,100.00
2023-04-16T00:33:59.782Z,100.00
2023-04-16T00:36:28.777Z,100.00
2023-04-16T00:38:57.255Z,100.00
2023-04-16T00:41:26.385Z,100.00
2023-04-16T00:43:54.589Z,100.00
2023-04-16T00:46:24.115Z,100.00
2023-04-16T00:48:54.323Z,100.00
2023-04-16T00:51:22.832Z,100.00
2023-04-16T00:53:51.022Z,100.00
2023-04-16T00:56:20.534Z,100.00
2023-04-16T00:58:49.905Z,100.00
2023-04-16T01:01:18.017Z,100.00
2023-04-16T01:03:48.243Z,100.00
2023-04-16T01:06:25.706Z,100.00
2023-04-16T01:08:57.123Z,100.00
2023-04-16T01:11:41.205Z,100.00
2023-04-16T01:14:13.208Z,100.00
2023-04-16T01:16:44.203Z,100.00
2023-04-16T01:19:12.377Z,100.00
2023-04-16T01:21:40.652Z,100.00
2023-04-16T01:24:08.639Z,100.00
2023-04-16T01:26:36.650Z,100.00
2023-04-16T01:29:04.645Z,100.00
2023-04-16T01:31:50.653Z,100.00
2023-04-16T01:34:32.514Z,100.00
2023-04-16T01:37:00.628Z,100.00
2023-04-16T01:39:28.719Z,100.00
2023-04-16T01:41:58.543Z,100.00
2023-04-16T01:44:26.671Z,100.00
2023-04-16T01:46:54.877Z,100.00
2023-04-16T01:49:23.961Z,100.00
2023-04-16T01:51:53.058Z,100.00
2023-04-16T01:54:21.258Z,100.00
2023-04-16T01:56:49.963Z,100.00
2023-04-16T01:59:18.884Z,100.00
2023-04-16T02:01:47.127Z,100.00
2023-04-16T02:04:17.913Z,100.00
2023-04-16T02:06:46.392Z,100.00
2023-04-16T02:09:15.786Z,100.00
2023-04-16T02:11:44.361Z,100.00
2023-04-16T02:14:12.484Z,100.00
2023-04-16T02:16:41.266Z,100.00
2023-04-16T02:19:45.397Z,100.00
2023-04-16T02:22:14.068Z,100.00
2023-04-16T02:24:42.102Z,100.00
2023-04-16T02:27:11.278Z,100.00
2023-04-16T02:29:41.303Z,100.00
2023-04-16T02:32:13.836Z,100.00
2023-04-16T02:34:44.694Z,100.00
2023-04-16T02:37:14.575Z,100.00
2023-04-16T02:39:43.924Z,100.00
2023-04-16T02:42:11.900Z,100.00
2023-04-16T02:44:40.479Z,100.00
2023-04-16T02:47:08.503Z,100.00
2023-04-16T02:49:40.937Z,100.00
2023-04-16T02:52:10.535Z,100.00
2023-04-16T02:54:38.539Z,100.00
2023-04-16T02:57:06.824Z,100.00
2023-04-16T02:59:34.908Z,100.00
2023-04-16T03:02:03.071Z,100.00
2023-04-16T03:04:33.526Z,100.00
2023-04-16T03:07:01.943Z,100.00
2023-04-16T03:09:33.017Z,100.00
2023-04-16T03:12:04.536Z,100.00
2023-04-16T03:14:32.700Z,100.00
2023-04-16T03:17:00.803Z,100.00
2023-04-16T03:19:28.903Z,100.00
2023-04-16T03:21:57.044Z,100.00
2023-04-16T03:24:25.125Z,100.00
2023-04-16T03:26:53.263Z,100.00
2023-04-16T03:29:22.487Z,100.00
2023-04-16T03:32:12.789Z,100.00
2023-04-16T03:34:46.724Z,100.00
2023-04-16T03:37:14.850Z,100.00
2023-04-16T03:39:43.017Z,100.00
2023-04-16T03:42:12.080Z,100.00
2023-04-16T03:44:40.484Z,100.00
2023-04-16T03:47:14.152Z,100.00
2023-04-16T03:49:42.327Z,100.00
2023-04-16T03:52:11.361Z,100.00
2023-04-16T03:54:39.477Z,100.00
2023-04-16T03:57:19.667Z,100.00
2023-04-16T03:59:52.993Z,100.00
2023-04-16T04:02:21.743Z,100.00
2023-04-16T04:04:50.368Z,100.00
2023-04-16T04:07:19.338Z,100.00
2023-04-16T04:09:47.381Z,100.00
2023-04-16T04:12:16.645Z,100.00
2023-04-16T04:14:45.281Z,100.00
2023-04-16T04:17:13.490Z,100.00
2023-04-16T04:19:47.029Z,100.00
2023-04-16T04:22:28.991Z,100.00
2023-04-16T04:24:57.123Z,100.00
2023-04-16T04:27:27.762Z,100.00
2023-04-16T04:29:59.282Z,97.29
2023-04-16T04:32:27.459Z,93.90
2023-04-16T04:34:55.493Z,91.81
2023-04-16T04:37:23.572Z,90.70
2023-04-16T04:39:51.712Z,89.15
2023-04-16T04:42:21.634Z,88.06
2023-04-16T04:44:50.120Z,85.62
2023-04-16T04:47:23.829Z,84.43
2023-04-16T04:49:53.803Z,81.67
2023-04-16T04:52:31.159Z,79.74
2023-04-16T04:55:16.528Z,76.78
2023-04-16T04:57:44.645Z,75.42
2023-04-16T05:00:13.139Z,74.76
2023-04-16T05:02:47.515Z,73.69
2023-04-16T05:05:16.295Z,72.64
2023-04-16T05:07:44.743Z,70.84
2023-04-16T05:10:13.236Z,69.67
2023-04-16T05:13:37.979Z,69.02
2023-04-16T05:15:39.554Z,67.89
2023-04-16T05:18:08.045Z,66.61
2023-04-16T05:20:38.022Z,66.32
2023-04-16T05:23:12.203Z,65.85
2023-04-16T05:25:49.293Z,65.84
2023-04-16T05:28:18.720Z,65.29
2023-04-16T05:30:58.478Z,64.65
2023-04-16T05:33:28.831Z,64.50
2023-04-16T05:36:08.154Z,62.70
2023-04-16T05:38:36.577Z,63.19
2023-04-16T05:41:04.833Z,63.44
2023-04-16T05:43:35.379Z,63.55
2023-04-16T05:46:05.102Z,63.83
2023-04-16T05:48:35.439Z,63.44
2023-04-16T05:51:23.210Z,63.11
2023-04-16T05:53:51.508Z,64.03
2023-04-16T05:56:31.751Z,65.38
2023-04-16T05:59:00.056Z,66.69
2023-04-16T06:01:28.410Z,67.87
2023-04-16T06:03:59.129Z,68.58
2023-04-16T06:06:30.495Z,69.22
2023-04-16T06:08:58.667Z,69.80
2023-04-16T06:11:27.729Z,70.32
2023-04-16T06:13:55.802Z,70.51
2023-04-16T06:16:25.304Z,70.53
2023-04-16T06:18:53.903Z,70.55
2023-04-16T06:24:33.773Z,69.35
2023-04-16T06:27:02.880Z,69.20
2023-04-16T06:29:41.229Z,69.45
2023-04-16T06:32:11.446Z,68.94
2023-04-16T06:34:41.090Z,68.47
2023-04-16T06:37:10.657Z,68.80
2023-04-16T06:39:40.537Z,68.43
2023-04-16T06:42:08.568Z,68.30
2023-04-16T06:44:36.671Z,68.22
2023-04-16T06:47:04.922Z,68.33
2023-04-16T06:49:33.177Z,67.43
2023-04-16T06:52:02.441Z,66.84
2023-04-16T06:54:32.431Z,66.35
2023-04-16T06:57:00.924Z,65.67
2023-04-16T06:59:31.786Z,64.35
2023-04-16T07:02:00.346Z,62.84
2023-04-16T07:04:28.426Z,63.54
2023-04-16T07:06:56.500Z,63.36
2023-04-16T07:09:25.283Z,62.55
2023-04-16T07:11:54.140Z,62.25
2023-04-16T07:14:22.244Z,62.57
2023-04-16T07:16:51.674Z,62.64
2023-04-16T07:19:19.836Z,61.94
2023-04-16T07:21:48.064Z,61.22
2023-04-16T07:24:19.539Z,60.85
2023-04-16T07:26:53.942Z,61.15
2023-04-16T07:29:24.698Z,61.34
2023-04-16T07:31:57.404Z,61.14
2023-04-16T07:34:27.841Z,60.96
2023-04-16T07:36:58.563Z,60.11
2023-04-16T07:39:26.742Z,60.82
2023-04-16T07:41:55.183Z,61.17
2023-04-16T07:44:25.524Z,60.82
2023-04-16T07:46:54.612Z,59.95
2023-04-16T07:49:27.828Z,60.00
2023-04-16T07:52:47.823Z,59.38
2023-04-16T07:55:16.077Z,57.88
2023-04-16T07:57:45.025Z,56.76
2023-04-16T08:00:15.742Z,53.51
2023-04-16T08:02:45.346Z,50.98
2023-04-16T08:05:18.807Z,51.77
2023-04-16T08:07:48.117Z,52.09
2023-04-16T08:10:16.869Z,50.69
2023-04-16T08:12:46.992Z,52.35
2023-04-16T08:15:40.523Z,50.60
2023-04-16T08:18:24.537Z,50.42
2023-04-16T08:21:09.991Z,49.77
2023-04-16T08:23:40.914Z,49.56
2023-04-16T08:26:14.311Z,49.83
2023-04-16T08:29:06.879Z,49.85
2023-04-16T08:31:39.407Z,48.45
2023-04-16T08:34:21.643Z,47.87
2023-04-16T08:36:49.693Z,48.24
2023-04-16T08:39:17.879Z,48.04
2023-04-16T08:41:48.140Z,47.60
2023-04-16T08:44:32.043Z,47.57
2023-04-16T08:47:02.964Z,46.58
2023-04-16T08:49:36.293Z,47.42
2023-04-16T08:52:06.803Z,48.68
2023-04-16T08:55:07.156Z,47.66
2023-04-16T08:57:51.062Z,46.96
2023-04-16T09:00:20.755Z,45.92
2023-04-16T09:02:52.188Z,44.08
2023-04-16T09:05:25.877Z,43.13
2023-04-16T09:07:57.001Z,43.47
2023-04-16T09:10:33.314Z,44.69
2023-04-16T09:13:01.573Z,45.66
2023-04-16T09:15:30.189Z,45.76
2023-04-16T09:18:01.397Z,44.63
2023-04-16T09:20:29.530Z,42.94
2023-04-16T09:22:57.805Z,42.65
2023-04-16T09:25:26.517Z,42.57
2023-04-16T09:27:54.631Z,42.90
2023-04-16T09:30:38.476Z,42.89
2023-04-16T09:33:16.538Z,42.01
2023-04-16T09:35:53.324Z,40.28
2023-04-16T09:38:21.774Z,38.61
2023-04-16T09:41:06.252Z,38.30
2023-04-16T09:43:35.835Z,37.11
2023-04-16T09:46:11.936Z,37.07
2023-04-16T09:48:40.258Z,38.26
2023-04-16T09:51:22.362Z,39.11
2023-04-16T09:53:56.918Z,39.94
2023-04-16T09:56:36.564Z,39.58
2023-04-16T09:59:16.828Z,39.27
2023-04-16T10:01:47.188Z,39.06
2023-04-16T10:04:22.802Z,37.99
2023-04-16T10:07:31.860Z,37.77
2023-04-16T10:10:07.668Z,37.54
2023-04-16T10:13:04.715Z,37.38
2023-04-16T10:15:36.258Z,37.40
2023-04-16T10:18:23.603Z,37.68
2023-04-16T10:20:53.651Z,37.69
2023-04-16T10:23:24.745Z,37.52
2023-04-16T10:25:57.380Z,36.90
2023-04-16T10:28:42.764Z,36.80
2023-04-16T10:31:20.929Z,35.88
2023-04-16T10:33:58.932Z,36.27
2023-04-16T10:36:27.196Z,36.40
2023-04-16T10:42:15.613Z,36.23
2023-04-16T10:44:46.387Z,36.18
2023-04-16T10:47:23.364Z,36.46
2023-04-16T10:49:58.422Z,36.11
2023-04-16T10:52:31.146Z,35.91
2023-04-16T10:54:59.582Z,35.91
2023-04-16T10:57:33.214Z,36.00
2023-04-16T11:00:22.470Z,35.56
2023-04-16T11:03:15.887Z,35.28
2023-04-16T11:06:00.192Z,35.28
2023-04-16T11:08:31.074Z,35.02
2023-04-16T11:11:05.099Z,35.07
2023-04-16T11:13:38.165Z,35.20
2023-04-16T11:16:08.985Z,35.61
2023-04-16T11:18:41.618Z,35.60
2023-04-16T11:21:27.283Z,35.43
2023-04-16T11:24:37.204Z,35.44
2023-04-16T11:27:23.167Z,35.11
2023-04-16T11:30:16.260Z,34.95
2023-04-16T11:33:09.546Z,34.75
2023-04-16T11:35:54.521Z,34.79
2023-04-16T11:38:43.016Z,34.69
2023-04-16T11:41:31.309Z,34.88
2023-04-16T11:44:25.485Z,34.80
2023-04-16T11:46:54.853Z,34.84
2023-04-16T11:49:33.121Z,34.54
2023-04-16T11:52:02.744Z,34.13
2023-04-16T11:54:36.735Z,34.36
2023-04-16T11:57:15.793Z,34.59
2023-04-16T12:00:02.780Z,34.57
2023-04-16T12:02:56.632Z,34.56
2023-04-16T12:05:44.415Z,34.34
2023-04-16T12:08:35.539Z,34.60
2023-04-16T12:11:12.381Z,34.69
2023-04-16T12:14:25.561Z,34.80
2023-04-16T12:17:39.570Z,34.42
2023-04-16T12:20:17.630Z,34.51
2023-04-16T12:23:17.782Z,34.68
2023-04-16T12:26:12.466Z,34.90
2023-04-16T12:29:39.112Z,35.30
2023-04-16T12:32:23.772Z,35.18
2023-04-16T12:35:04.060Z,35.64
2023-04-16T12:37:46.933Z,35.82
2023-04-16T12:40:38.203Z,35.32
2023-04-16T12:43:31.318Z,35.14
2023-04-16T12:46:04.296Z,35.31
2023-04-16T12:48:38.079Z,35.46
2023-04-16T12:51:06.785Z,35.43
2023-04-16T12:53:48.190Z,35.67
2023-04-16T12:56:27.738Z,35.42
2023-04-16T13:01:52.757Z,35.82
2023-04-16T13:04:33.459Z,35.91
2023-04-16T13:07:43.529Z,35.66
2023-04-16T13:10:25.184Z,35.71
2023-04-16T13:13:21.419Z,35.35
2023-04-16T13:16:08.825Z,35.42
2023-04-16T13:18:58.658Z,35.63
2023-04-16T13:21:42.257Z,35.43
2023-04-16T13:24:45.041Z,35.63
2023-04-16T13:27:44.419Z,35.93
2023-04-16T13:30:18.976Z,35.38
2023-04-16T13:33:14.143Z,35.45
2023-04-16T13:35:57.827Z,34.93
2023-04-16T13:40:00.408Z,34.83
2023-04-16T13:43:09.967Z,34.76
2023-04-16T13:46:22.047Z,35.04
2023-04-16T13:49:58.793Z,36.32
2023-04-16T13:55:47.361Z,38.35
2023-04-16T13:58:16.348Z,38.71
2023-04-16T14:01:33.200Z,39.05
2023-04-16T14:04:23.501Z,39.51
2023-04-16T14:07:20.420Z,40.68
2023-04-16T14:09:54.987Z,41.34
2023-04-16T14:15:55.902Z,41.53
2023-04-16T14:19:08.323Z,41.78
2023-04-16T14:21:43.413Z,41.88
2023-04-16T14:24:22.244Z,42.09
2023-04-16T14:30:08.917Z,41.68
2023-04-16T14:33:08.955Z,42.01
2023-04-16T14:35:43.481Z,42.34
2023-04-16T14:38:21.166Z,42.48
2023-04-16T14:40:49.731Z,42.49
2023-04-16T14:43:19.641Z,42.67
2023-04-16T14:45:56.478Z,42.95
2023-04-16T14:48:31.869Z,43.33
2023-04-16T14:51:11.584Z,43.41
2023-04-16T14:54:03.490Z,43.63
2023-04-16T14:56:40.876Z,43.86
2023-04-16T14:59:50.528Z,44.21
2023-04-16T15:02:20.028Z,44.53
2023-04-16T15:05:19.875Z,44.84
2023-04-16T15:08:29.488Z,45.03
2023-04-16T15:10:57.851Z,45.20
2023-04-16T15:14:26.730Z,45.12
2023-04-16T15:16:35.787Z,44.92
2023-04-16T15:22:04.271Z,44.48
2023-04-16T15:24:36.622Z,44.44
2023-04-16T15:27:07.683Z,44.46
2023-04-16T15:29:37.380Z,44.54
2023-04-16T15:32:07.126Z,44.55
2023-04-16T15:34:35.588Z,44.37
2023-04-16T15:37:12.106Z,44.32
2023-04-16T15:39:41.030Z,44.30
2023-04-16T15:42:11.566Z,44.26
2023-04-16T15:44:49.476Z,44.32
2023-04-16T15:47:21.389Z,44.35
2023-04-16T15:49:56.756Z,44.21
2023-04-16T15:52:30.673Z,44.15
2023-04-16T15:55:12.443Z,44.04
2023-04-16T16:00:27.829Z,44.11
2023-04-16T16:02:57.227Z,44.22
2023-04-16T16:05:25.905Z,44.14
2023-04-16T16:08:02.433Z,44.16
2023-04-16T16:10:33.297Z,44.01
2023-04-16T16:13:08.134Z,43.92
2023-04-16T16:15:40.646Z,43.91
2023-04-16T16:18:13.687Z,43.82
2023-04-16T16:20:55.119Z,43.89
2023-04-16T16:23:27.564Z,43.87
2023-04-16T16:25:58.141Z,44.03
2023-04-16T16:28:29.454Z,44.19
2023-04-16T16:30:58.931Z,44.31
2023-04-16T16:33:30.948Z,44.41
2023-04-16T16:36:06.186Z,44.38
2023-04-16T16:38:35.296Z,44.58
2023-04-16T16:41:03.332Z,44.62
2023-04-16T16:43:31.653Z,44.64
2023-04-16T16:45:59.568Z,44.58
2023-04-16T16:48:29.657Z,44.72
2023-04-16T16:50:57.643Z,45.53
2023-04-16T16:53:25.803Z,45.94
2023-04-16T16:55:53.749Z,46.52
2023-04-16T16:58:21.895Z,47.10
2023-04-16T17:00:50.044Z,47.24
2023-04-16T17:03:18.377Z,47.56
2023-04-16T17:05:46.815Z,48.02
2023-04-16T17:08:15.123Z,48.16
2023-04-16T17:10:43.928Z,48.01
2023-04-16T17:13:13.774Z,47.24
2023-04-16T17:15:41.987Z,46.70
2023-04-16T17:18:10.084Z,46.98
2023-04-16T17:20:38.252Z,47.18
2023-04-16T17:23:06.301Z,46.63
2023-04-16T17:25:34.406Z,46.59
2023-04-16T17:28:03.025Z,46.73
2023-04-16T17:30:31.809Z,47.14
2023-04-16T17:32:59.930Z,47.29
2023-04-16T17:35:28.051Z,47.57
2023-04-16T17:37:56.224Z,47.77
2023-04-16T17:40:24.292Z,48.10
2023-04-16T17:42:52.372Z,48.49
2023-04-16T17:45:20.419Z,48.57
2023-04-16T17:47:48.538Z,48.66
2023-04-16T17:50:16.570Z,48.68
2023-04-16T17:52:44.709Z,48.99
2023-04-16T17:55:12.830Z,49.23
2023-04-16T17:57:40.947Z,49.16
2023-04-16T18:00:12.778Z,49.44
2023-04-16T18:02:42.029Z,49.50
2023-04-16T18:05:10.403Z,49.64
2023-04-16T18:07:39.140Z,49.66
2023-04-16T18:10:08.236Z,49.81
2023-04-16T18:12:36.373Z,50.24
2023-04-16T18:15:07.552Z,50.55
2023-04-16T18:17:35.682Z,50.76
2023-04-16T18:20:06.101Z,50.68
2023-04-16T18:22:34.097Z,50.79
2023-04-16T18:25:02.275Z,51.02
2023-04-16T18:27:30.226Z,51.17
2023-04-16T18:30:00.774Z,51.26
2023-04-16T18:32:31.145Z,51.34
2023-04-16T18:34:59.385Z,51.46
2023-04-16T18:37:54.816Z,51.65
2023-04-16T18:40:26.379Z,51.95
2023-04-16T18:42:54.259Z,52.02
2023-04-16T18:45:22.328Z,52.19
2023-04-16T18:47:50.723Z,52.44
2023-04-16T18:50:18.833Z,52.48
2023-04-16T18:52:46.974Z,52.53
2023-04-16T18:55:15.937Z,52.64
2023-04-16T18:57:44.320Z,52.70
2023-04-16T19:00:13.106Z,52.64
2023-04-16T19:02:41.910Z,52.77
2023-04-16T19:05:10.390Z,52.97
2023-04-16T19:07:38.590Z,53.16
2023-04-16T19:10:07.229Z,53.17
2023-04-16T19:12:35.415Z,53.27
2023-04-16T19:15:04.200Z,53.25
2023-04-16T19:17:32.208Z,53.42
2023-04-16T19:20:00.213Z,53.45
2023-04-16T19:22:28.278Z,53.59
2023-04-16T19:24:56.392Z,53.53
2023-04-16T19:27:24.524Z,53.64
2023-04-16T19:29:52.857Z,53.52
2023-04-16T19:32:21.238Z,53.74
2023-04-16T19:34:49.136Z,53.86
2023-04-16T19:37:17.200Z,53.85
2023-04-16T19:39:45.196Z,53.98
2023-04-16T19:42:13.728Z,54.16
2023-04-16T19:44:41.670Z,54.19
2023-04-16T19:47:09.698Z,54.11
2023-04-16T19:49:37.777Z,54.28
2023-04-16T19:52:06.101Z,54.43
2023-04-16T19:54:37.286Z,54.66
2023-04-16T19:57:05.510Z,54.59
2023-04-16T19:59:34.191Z,54.77
2023-04-16T20:02:02.396Z,55.11
2023-04-16T20:04:30.517Z,55.09
2023-04-16T20:06:58.785Z,55.32
2023-04-16T20:09:27.162Z,55.47
2023-04-16T20:11:55.242Z,56.14
2023-04-16T20:14:23.146Z,56.65
2023-04-16T20:16:52.021Z,56.80
2023-04-16T20:19:20.083Z,56.77
2023-04-16T20:21:48.049Z,56.79
2023-04-16T20:24:15.910Z,57.02
2023-04-16T20:26:43.936Z,56.86
2023-04-16T20:29:12.288Z,56.46
2023-04-16T20:31:44.549Z,56.26
2023-04-16T20:34:12.857Z,56.10
2023-04-16T20:36:40.861Z,55.98
2023-04-16T20:39:13.631Z,56.22
2023-04-16T20:41:57.111Z,56.42
2023-04-16T20:44:33.458Z,56.45
2023-04-16T20:47:01.706Z,56.62
2023-04-16T20:49:34.193Z,56.66
2023-04-16T20:52:02.626Z,56.77
2023-04-16T20:54:31.407Z,57.51
2023-04-16T20:57:02.275Z,58.36
2023-04-16T20:59:34.167Z,58.89
2023-04-16T21:02:02.074Z,59.10
2023-04-16T21:04:30.256Z,59.47
2023-04-16T21:07:03.238Z,59.58
2023-04-16T21:09:31.685Z,59.59
2023-04-16T21:11:59.676Z,59.38
2023-04-16T21:14:27.750Z,59.14
2023-04-16T21:16:55.766Z,59.04
2023-04-16T21:19:25.208Z,58.93
2023-04-16T21:21:53.278Z,58.83
2023-04-16T21:24:21.279Z,58.85
2023-04-16T21:26:49.241Z,58.82
2023-04-16T21:29:17.751Z,58.86
2023-04-16T21:31:45.973Z,59.20
2023-04-16T21:34:13.992Z,59.50
2023-04-16T21:36:41.910Z,59.79
2023-04-16T21:39:11.109Z,59.95
2023-04-16T21:41:39.556Z,60.07
2023-04-16T21:44:07.506Z,60.23
2023-04-16T21:46:36.851Z,60.50
2023-04-16T21:49:04.944Z,60.86
2023-04-16T21:51:33.080Z,61.21
2023-04-16T21:54:03.173Z,61.66
2023-04-16T21:56:31.316Z,62.22
2023-04-16T21:59:06.262Z,62.65
2023-04-16T22:01:45.433Z,63.00
2023-04-16T22:04:15.852Z,63.43
2023-04-16T22:06:46.897Z,63.82
2023-04-16T22:09:15.550Z,64.23
2023-04-16T22:11:46.660Z,64.70
2023-04-16T22:14:19.642Z,64.83
2023-04-16T22:16:50.084Z,65.42
2023-04-16T22:19:30.506Z,65.87
2023-04-16T22:22:01.166Z,66.22
2023-04-16T22:24:38.914Z,66.44
2023-04-16T22:27:17.217Z,66.87
2023-04-16T22:29:47.978Z,67.09
2023-04-16T22:32:16.361Z,67.29
2023-04-16T22:34:50.199Z,67.56
2023-04-16T22:37:23.014Z,68.13
2023-04-16T22:39:57.493Z,68.54
2023-04-16T22:42:26.018Z,68.61
2023-04-16T22:45:01.376Z,68.87
2023-04-16T22:47:39.087Z,68.71
2023-04-16T22:50:15.243Z,68.85
2023-04-16T22:55:45.229Z,68.44
2023-04-16T22:58:13.238Z,68.54
2023-04-16T23:00:41.312Z,68.63
2023-04-16T23:03:10.161Z,68.83
2023-04-16T23:05:38.455Z,69.18
2023-04-16T23:08:06.568Z,69.67
2023-04-16T23:10:37.417Z,70.00
2023-04-16T23:13:07.454Z,70.27
2023-04-16T23:15:40.894Z,70.74
2023-04-16T23:18:09.025Z,71.17
2023-04-16T23:20:39.338Z,71.81
2023-04-16T23:23:07.739Z,72.30
2023-04-16T23:25:35.898Z,72.54
2023-04-16T23:28:03.836Z,73.16
2023-04-16T23:30:51.195Z,73.31
2023-04-16T23:33:19.292Z,73.74
2023-04-16T23:35:47.954Z,74.19
2023-04-16T23:38:18.074Z,74.48
2023-04-16T23:40:46.204Z,75.04
2023-04-16T23:43:14.192Z,75.33
2023-04-16T23:45:42.166Z,75.85
2023-04-16T23:48:12.177Z,75.90
2023-04-16T23:50:40.090Z,76.27
2023-04-16T23:53:08.108Z,76.09
2023-04-16T23:55:36.166Z,76.65
2023-04-16T23:58:04.054Z,77.73
